sensor_id;sensor_type;location;lat;lon;timestamp;P1;durP1;ratioP1;P2;durP2;ratioP2
2023;SDS011;1016;48.770;9.154;2022-10-30T00:00:31;22.90;;;4.00;;
2023;SDS011;1016;48.770;9.154;2022-10-30T00:02:56;24.53;;;4.63;;
2023;SDS011;1016;48.770;9.154;2022-10-30T00:05:22;25.60;;;4.27;;
2023;SDS011;1016;48.770;9.154;2022-10-30T00:07:48;22.77;;;3.70;;
2023;SDS011;1016;48.770;9.154;2022-10-30T00:10:14;29.53;;;4.70;;
2023;SDS011;1016;48.770;9.154;2022-10-30T00:12:41;23.60;;;4.37;;
2023;SDS011;1016;48.770;9.154;2022-10-30T00:15:07;29.37;;;4.50;;
2023;SDS011;1016;48.770;9.154;2022-10-30T00:17:33;27.40;;;4.27;;
2023;SDS011;1016;48.770;9.154;2022-10-30T00:19:59;22.90;;;3.80;;
2023;SDS011;1016;48.770;9.154;2022-10-30T00:22:24;25.03;;;4.00;;
2023;SDS011;1016;48.770;9.154;2022-10-30T00:24:50;23.20;;;4.13;;
2023;SDS011;1016;48.770;9.154;2022-10-30T00:27:15;23.67;;;3.87;;
2023;SDS011;1016;48.770;9.154;2022-10-30T00:29:42;26.30;;;4.23;;
2023;SDS011;1016;48.770;9.154;2022-10-30T00:32:07;24.70;;;4.20;;
2023;SDS011;1016;48.770;9.154;2022-10-30T00:34:33;28.47;;;4.37;;
2023;SDS011;1016;48.770;9.154;2022-10-30T00:36:58;27.80;;;4.13;;
2023;SDS011;1016;48.770;9.154;2022-10-30T00:39:24;26.07;;;5.00;;
2023;SDS011;1016;48.770;9.154;2022-10-30T00:41:49;27.40;;;5.33;;
2023;SDS011;1016;48.770;9.154;2022-10-30T00:44:31;23.17;;;5.80;;
2023;SDS011;1016;48.770;9.154;2022-10-30T00:47:03;23.93;;;7.30;;
2023;SDS011;1016;48.770;9.154;2022-10-30T00:49:37;31.50;;;8.03;;
2023;SDS011;1016;48.770;9.154;2022-10-30T00:52:09;31.23;;;7.07;;
2023;SDS011;1016;48.770;9.154;2022-10-30T00:54:35;27.10;;;7.70;;
2023;SDS011;1016;48.770;9.154;2022-10-30T00:57:01;28.07;;;7.40;;
2023;SDS011;1016;48.770;9.154;2022-10-30T00:59:32;24.47;;;7.77;;
2023;SDS011;1016;48.770;9.154;2022-10-30T01:02:00;24.03;;;7.33;;
2023;SDS011;1016;48.770;9.154;2022-10-30T01:04:27;30.37;;;8.10;;
2023;SDS011;1016;48.770;9.154;2022-10-30T01:06:55;32.73;;;7.73;;
2023;SDS011;1016;48.770;9.154;2022-10-30T01:09:21;31.10;;;7.77;;
2023;SDS011;1016;48.770;9.154;2022-10-30T01:11:47;28.77;;;8.67;;
2023;SDS011;1016;48.770;9.154;2022-10-30T01:14:13;26.87;;;8.10;;
2023;SDS011;1016;48.770;9.154;2022-10-30T01:19:17;32.37;;;11.10;;
2023;SDS011;1016;48.770;9.154;2022-10-30T01:35:18;28.07;;;9.90;;
2023;SDS011;1016;48.770;9.154;2022-10-30T01:37:56;32.80;;;13.60;;
2023;SDS011;1016;48.770;9.154;2022-10-30T01:40:31;33.80;;;10.07;;
2023;SDS011;1016;48.770;9.154;2022-10-30T01:42:57;30.33;;;10.53;;
2023;SDS011;1016;48.770;9.154;2022-10-30T01:53:26;27.80;;;9.83;;
2023;SDS011;1016;48.770;9.154;2022-10-30T01:56:08;30.53;;;10.30;;
2023;SDS011;1016;48.770;9.154;2022-10-30T01:58:54;29.63;;;9.70;;
2023;SDS011;1016;48.770;9.154;2022-10-30T02:01:28;28.87;;;10.13;;
2023;SDS011;1016;48.770;9.154;2022-10-30T02:03:57;26.80;;;10.33;;
2023;SDS011;1016;48.770;9.154;2022-10-30T02:06:23;28.67;;;12.90;;
2023;SDS011;1016;48.770;9.154;2022-10-30T02:08:48;31.07;;;11.57;;
2023;SDS011;1016;48.770;9.154;2022-10-30T02:11:14;28.00;;;9.83;;
2023;SDS011;1016;48.770;9.154;2022-10-30T02:13:40;25.33;;;9.53;;
2023;SDS011;1016;48.770;9.154;2022-10-30T02:16:06;36.60;;;10.77;;
2023;SDS011;1016;48.770;9.154;2022-10-30T02:18:32;28.90;;;10.17;;
2023;SDS011;1016;48.770;9.154;2022-10-30T02:20:58;29.60;;;10.20;;
2023;SDS011;1016;48.770;9.154;2022-10-30T02:23:23;27.67;;;9.27;;
2023;SDS011;1016;48.770;9.154;2022-10-30T02:25:49;28.23;;;9.57;;
2023;SDS011;1016;48.770;9.154;2022-10-30T02:28:14;29.23;;;9.53;;
2023;SDS011;1016;48.770;9.154;2022-10-30T02:30:40;29.30;;;9.77;;
2023;SDS011;1016;48.770;9.154;2022-10-30T02:33:08;28.03;;;9.37;;
2023;SDS011;1016;48.770;9.154;2022-10-30T02:35:34;26.93;;;10.20;;
2023;SDS011;1016;48.770;9.154;2022-10-30T02:38:00;30.97;;;10.10;;
2023;SDS011;1016;48.770;9.154;2022-10-30T02:40:26;28.67;;;9.97;;
2023;SDS011;1016;48.770;9.154;2022-10-30T02:42:52;25.27;;;9.50;;
2023;SDS011;1016;48.770;9.154;2022-10-30T02:45:18;28.70;;;9.40;;
2023;SDS011;1016;48.770;9.154;2022-10-30T02:47:44;25.27;;;8.97;;
2023;SDS011;1016;48.770;9.154;2022-10-30T02:50:10;28.07;;;9.57;;
2023;SDS011;1016;48.770;9.154;2022-10-30T02:52:35;27.00;;;9.73;;
2023;SDS011;1016;48.770;9.154;2022-10-30T02:55:01;28.47;;;9.50;;
2023;SDS011;1016;48.770;9.154;2022-10-30T02:57:26;29.33;;;10.10;;
2023;SDS011;1016;48.770;9.154;2022-10-30T02:59:52;24.87;;;9.10;;
2023;SDS011;1016;48.770;9.154;2022-10-30T03:02:18;28.07;;;8.73;;
2023;SDS011;1016;48.770;9.154;2022-10-30T03:04:43;26.80;;;8.63;;
2023;SDS011;1016;48.770;9.154;2022-10-30T03:07:08;26.97;;;9.33;;
2023;SDS011;1016;48.770;9.154;2022-10-30T03:09:34;27.40;;;9.30;;
2023;SDS011;1016;48.770;9.154;2022-10-30T03:11:59;26.30;;;9.17;;
2023;SDS011;1016;48.770;9.154;2022-10-30T03:14:25;29.10;;;8.10;;
2023;SDS011;1016;48.770;9.154;2022-10-30T03:16:51;24.23;;;7.73;;
2023;SDS011;1016;48.770;9.154;2022-10-30T03:19:16;27.23;;;7.97;;
2023;SDS011;1016;48.770;9.154;2022-10-30T03:21:42;28.20;;;8.70;;
2023;SDS011;1016;48.770;9.154;2022-10-30T03:24:08;23.40;;;7.83;;
2023;SDS011;1016;48.770;9.154;2022-10-30T03:26:34;25.73;;;8.60;;
2023;SDS011;1016;48.770;9.154;2022-10-30T03:28:59;25.43;;;7.80;;
2023;SDS011;1016;48.770;9.154;2022-10-30T03:31:25;28.07;;;8.40;;
2023;SDS011;1016;48.770;9.154;2022-10-30T03:33:50;28.63;;;8.10;;
2023;SDS011;1016;48.770;9.154;2022-10-30T03:36:16;25.07;;;8.07;;
2023;SDS011;1016;48.770;9.154;2022-10-30T03:38:41;27.47;;;8.20;;
2023;SDS011;1016;48.770;9.154;2022-10-30T03:41:07;25.40;;;8.60;;
2023;SDS011;1016;48.770;9.154;2022-10-30T03:43:32;25.93;;;7.90;;
2023;SDS011;1016;48.770;9.154;2022-10-30T03:45:58;28.17;;;7.53;;
2023;SDS011;1016;48.770;9.154;2022-10-30T03:48:25;29.47;;;7.90;;
2023;SDS011;1016;48.770;9.154;2022-10-30T03:50:52;23.33;;;7.63;;
2023;SDS011;1016;48.770;9.154;2022-10-30T03:53:18;26.57;;;8.47;;
2023;SDS011;1016;48.770;9.154;2022-10-30T03:55:43;26.83;;;8.63;;
2023;SDS011;1016;48.770;9.154;2022-10-30T03:58:09;27.90;;;8.00;;
2023;SDS011;1016;48.770;9.154;2022-10-30T04:00:34;26.83;;;8.50;;
2023;SDS011;1016;48.770;9.154;2022-10-30T04:03:00;27.93;;;7.97;;
2023;SDS011;1016;48.770;9.154;2022-10-30T04:05:27;28.17;;;8.17;;
2023;SDS011;1016;48.770;9.154;2022-10-30T04:07:56;23.73;;;7.47;;
2023;SDS011;1016;48.770;9.154;2022-10-30T04:10:24;23.33;;;7.47;;
2023;SDS011;1016;48.770;9.154;2022-10-30T04:12:50;24.80;;;6.77;;
2023;SDS011;1016;48.770;9.154;2022-10-30T04:15:18;25.93;;;6.77;;
2023;SDS011;1016;48.770;9.154;2022-10-30T04:17:47;29.17;;;7.30;;
2023;SDS011;1016;48.770;9.154;2022-10-30T04:20:16;25.70;;;6.90;;
2023;SDS011;1016;48.770;9.154;2022-10-30T04:22:43;25.63;;;6.20;;
2023;SDS011;1016;48.770;9.154;2022-10-30T04:25:08;27.07;;;6.37;;
2023;SDS011;1016;48.770;9.154;2022-10-30T04:27:40;24.17;;;6.10;;
2023;SDS011;1016;48.770;9.154;2022-10-30T04:30:07;23.43;;;6.53;;
2023;SDS011;1016;48.770;9.154;2022-10-30T04:32:34;22.80;;;6.37;;
2023;SDS011;1016;48.770;9.154;2022-10-30T04:34:59;24.77;;;6.00;;
2023;SDS011;1016;48.770;9.154;2022-10-30T04:37:25;21.77;;;5.97;;
2023;SDS011;1016;48.770;9.154;2022-10-30T04:39:51;21.63;;;5.50;;
2023;SDS011;1016;48.770;9.154;2022-10-30T04:42:16;27.23;;;5.77;;
2023;SDS011;1016;48.770;9.154;2022-10-30T04:44:41;22.20;;;5.20;;
2023;SDS011;1016;48.770;9.154;2022-10-30T04:47:07;25.30;;;5.60;;
2023;SDS011;1016;48.770;9.154;2022-10-30T04:49:32;24.80;;;5.30;;
2023;SDS011;1016;48.770;9.154;2022-10-30T04:51:58;24.50;;;5.27;;
2023;SDS011;1016;48.770;9.154;2022-10-30T04:54:23;26.70;;;5.30;;
2023;SDS011;1016;48.770;9.154;2022-10-30T04:56:49;27.03;;;6.00;;
2023;SDS011;1016;48.770;9.154;2022-10-30T04:59:14;26.50;;;5.63;;
2023;SDS011;1016;48.770;9.154;2022-10-30T05:01:41;25.80;;;5.50;;
2023;SDS011;1016;48.770;9.154;2022-10-30T05:04:06;23.77;;;5.40;;
2023;SDS011;1016;48.770;9.154;2022-10-30T05:06:32;30.10;;;4.80;;
2023;SDS011;1016;48.770;9.154;2022-10-30T05:08:58;22.90;;;4.70;;
2023;SDS011;1016;48.770;9.154;2022-10-30T05:11:23;24.90;;;5.63;;
2023;SDS011;1016;48.770;9.154;2022-10-30T05:13:49;28.27;;;6.17;;
2023;SDS011;1016;48.770;9.154;2022-10-30T05:16:14;25.07;;;5.90;;
2023;SDS011;1016;48.770;9.154;2022-10-30T05:18:40;20.37;;;5.67;;
2023;SDS011;1016;48.770;9.154;2022-10-30T05:21:05;24.23;;;6.60;;
2023;SDS011;1016;48.770;9.154;2022-10-30T05:23:31;27.17;;;6.80;;
2023;SDS011;1016;48.770;9.154;2022-10-30T05:25:58;24.40;;;6.70;;
2023;SDS011;1016;48.770;9.154;2022-10-30T05:28:24;24.30;;;7.10;;
2023;SDS011;1016;48.770;9.154;2022-10-30T05:30:51;23.23;;;7.33;;
2023;SDS011;1016;48.770;9.154;2022-10-30T05:33:17;23.23;;;6.43;;
2023;SDS011;1016;48.770;9.154;2022-10-30T05:35:42;25.13;;;6.23;;
2023;SDS011;1016;48.770;9.154;2022-10-30T05:38:08;26.67;;;6.80;;
2023;SDS011;1016;48.770;9.154;2022-10-30T05:40:35;25.70;;;6.93;;
2023;SDS011;1016;48.770;9.154;2022-10-30T05:43:00;27.40;;;6.43;;
2023;SDS011;1016;48.770;9.154;2022-10-30T05:45:26;27.30;;;7.20;;
2023;SDS011;1016;48.770;9.154;2022-10-30T05:47:58;27.00;;;7.03;;
2023;SDS011;1016;48.770;9.154;2022-10-30T05:50:28;24.63;;;6.60;;
2023;SDS011;1016;48.770;9.154;2022-10-30T05:52:55;24.33;;;6.50;;
2023;SDS011;1016;48.770;9.154;2022-10-30T05:55:25;28.83;;;6.70;;
2023;SDS011;1016;48.770;9.154;2022-10-30T05:57:55;22.83;;;6.20;;
2023;SDS011;1016;48.770;9.154;2022-10-30T06:00:21;27.03;;;6.47;;
2023;SDS011;1016;48.770;9.154;2022-10-30T06:02:46;24.00;;;5.90;;
2023;SDS011;1016;48.770;9.154;2022-10-30T06:05:12;26.30;;;6.53;;
2023;SDS011;1016;48.770;9.154;2022-10-30T06:07:38;25.63;;;6.50;;
2023;SDS011;1016;48.770;9.154;2022-10-30T06:10:03;24.50;;;6.40;;
2023;SDS011;1016;48.770;9.154;2022-10-30T06:12:29;23.80;;;6.30;;
2023;SDS011;1016;48.770;9.154;2022-10-30T06:14:55;23.80;;;5.70;;
2023;SDS011;1016;48.770;9.154;2022-10-30T06:17:20;27.93;;;6.33;;
2023;SDS011;1016;48.770;9.154;2022-10-30T06:19:46;23.50;;;5.83;;
2023;SDS011;1016;48.770;9.154;2022-10-30T06:22:11;22.50;;;6.57;;
2023;SDS011;1016;48.770;9.154;2022-10-30T06:24:37;26.40;;;6.30;;
2023;SDS011;1016;48.770;9.154;2022-10-30T06:27:02;23.60;;;6.43;;
2023;SDS011;1016;48.770;9.154;2022-10-30T06:29:28;23.57;;;5.93;;
2023;SDS011;1016;48.770;9.154;2022-10-30T06:31:53;26.20;;;6.80;;
2023;SDS011;1016;48.770;9.154;2022-10-30T06:34:19;29.00;;;6.73;;
2023;SDS011;1016;48.770;9.154;2022-10-30T06:36:44;26.97;;;7.60;;
2023;SDS011;1016;48.770;9.154;2022-10-30T06:39:10;29.43;;;6.57;;
2023;SDS011;1016;48.770;9.154;2022-10-30T06:41:35;27.30;;;6.80;;
2023;SDS011;1016;48.770;9.154;2022-10-30T06:44:00;31.20;;;7.60;;
2023;SDS011;1016;48.770;9.154;2022-10-30T06:46:26;24.80;;;6.63;;
2023;SDS011;1016;48.770;9.154;2022-10-30T06:48:51;27.40;;;7.10;;
2023;SDS011;1016;48.770;9.154;2022-10-30T06:51:17;25.27;;;7.00;;
2023;SDS011;1016;48.770;9.154;2022-10-30T06:53:42;27.60;;;6.90;;
2023;SDS011;1016;48.770;9.154;2022-10-30T06:56:08;26.53;;;6.90;;
2023;SDS011;1016;48.770;9.154;2022-10-30T06:58:34;29.13;;;6.77;;
2023;SDS011;1016;48.770;9.154;2022-10-30T07:01:03;23.23;;;6.60;;
2023;SDS011;1016;48.770;9.154;2022-10-30T07:03:30;25.07;;;6.90;;
2023;SDS011;1016;48.770;9.154;2022-10-30T07:05:56;24.40;;;6.50;;
2023;SDS011;1016;48.770;9.154;2022-10-30T07:08:21;28.40;;;6.93;;
2023;SDS011;1016;48.770;9.154;2022-10-30T07:10:47;26.97;;;6.70;;
2023;SDS011;1016;48.770;9.154;2022-10-30T07:13:12;25.53;;;7.30;;
2023;SDS011;1016;48.770;9.154;2022-10-30T07:15:38;27.30;;;7.20;;
2023;SDS011;1016;48.770;9.154;2022-10-30T07:18:03;27.07;;;7.13;;
2023;SDS011;1016;48.770;9.154;2022-10-30T07:20:30;24.70;;;7.10;;
2023;SDS011;1016;48.770;9.154;2022-10-30T07:22:57;25.07;;;7.47;;
2023;SDS011;1016;48.770;9.154;2022-10-30T07:25:23;25.60;;;7.23;;
2023;SDS011;1016;48.770;9.154;2022-10-30T07:27:50;25.57;;;7.10;;
2023;SDS011;1016;48.770;9.154;2022-10-30T07:30:17;24.53;;;6.70;;
2023;SDS011;1016;48.770;9.154;2022-10-30T07:32:44;26.30;;;7.03;;
2023;SDS011;1016;48.770;9.154;2022-10-30T07:35:11;28.10;;;8.03;;
2023;SDS011;1016;48.770;9.154;2022-10-30T07:37:38;24.97;;;6.63;;
2023;SDS011;1016;48.770;9.154;2022-10-30T07:40:05;28.53;;;7.40;;
2023;SDS011;1016;48.770;9.154;2022-10-30T07:42:31;24.53;;;7.47;;
2023;SDS011;1016;48.770;9.154;2022-10-30T07:44:57;28.40;;;7.37;;
2023;SDS011;1016;48.770;9.154;2022-10-30T07:47:23;24.20;;;7.30;;
2023;SDS011;1016;48.770;9.154;2022-10-30T07:49:48;26.47;;;7.83;;
2023;SDS011;1016;48.770;9.154;2022-10-30T07:52:14;23.13;;;7.03;;
2023;SDS011;1016;48.770;9.154;2022-10-30T07:54:39;24.33;;;7.63;;
2023;SDS011;1016;48.770;9.154;2022-10-30T07:57:06;27.37;;;7.77;;
2023;SDS011;1016;48.770;9.154;2022-10-30T07:59:31;23.50;;;7.20;;
2023;SDS011;1016;48.770;9.154;2022-10-30T08:01:57;23.30;;;7.40;;
2023;SDS011;1016;48.770;9.154;2022-10-30T08:04:24;27.00;;;7.63;;
2023;SDS011;1016;48.770;9.154;2022-10-30T08:06:50;28.90;;;8.27;;
2023;SDS011;1016;48.770;9.154;2022-10-30T08:09:15;24.20;;;7.17;;
2023;SDS011;1016;48.770;9.154;2022-10-30T08:11:41;23.33;;;7.10;;
2023;SDS011;1016;48.770;9.154;2022-10-30T08:14:06;24.73;;;7.67;;
2023;SDS011;1016;48.770;9.154;2022-10-30T08:16:32;27.20;;;8.00;;
2023;SDS011;1016;48.770;9.154;2022-10-30T08:18:57;23.43;;;7.17;;
2023;SDS011;1016;48.770;9.154;2022-10-30T08:21:23;27.03;;;8.33;;
2023;SDS011;1016;48.770;9.154;2022-10-30T08:23:48;23.73;;;8.77;;
2023;SDS011;1016;48.770;9.154;2022-10-30T08:26:15;25.90;;;7.70;;
2023;SDS011;1016;48.770;9.154;2022-10-30T08:28:41;24.30;;;7.10;;
2023;SDS011;1016;48.770;9.154;2022-10-30T08:31:06;23.87;;;7.83;;
2023;SDS011;1016;48.770;9.154;2022-10-30T08:33:32;26.13;;;7.13;;
2023;SDS011;1016;48.770;9.154;2022-10-30T08:35:58;22.87;;;7.10;;
2023;SDS011;1016;48.770;9.154;2022-10-30T08:38:25;25.67;;;7.00;;
2023;SDS011;1016;48.770;9.154;2022-10-30T08:40:51;24.53;;;7.30;;
2023;SDS011;1016;48.770;9.154;2022-10-30T08:43:17;25.90;;;6.70;;
2023;SDS011;1016;48.770;9.154;2022-10-30T08:45:43;25.57;;;7.63;;
2023;SDS011;1016;48.770;9.154;2022-10-30T08:48:09;24.30;;;7.10;;
2023;SDS011;1016;48.770;9.154;2022-10-30T08:50:36;26.30;;;7.00;;
2023;SDS011;1016;48.770;9.154;2022-10-30T08:53:02;24.00;;;6.77;;
2023;SDS011;1016;48.770;9.154;2022-10-30T08:55:30;22.60;;;7.20;;
2023;SDS011;1016;48.770;9.154;2022-10-30T08:57:56;30.60;;;7.27;;
2023;SDS011;1016;48.770;9.154;2022-10-30T09:00:22;22.40;;;6.57;;
2023;SDS011;1016;48.770;9.154;2022-10-30T09:02:48;25.07;;;6.90;;
2023;SDS011;1016;48.770;9.154;2022-10-30T09:05:14;26.67;;;6.53;;
2023;SDS011;1016;48.770;9.154;2022-10-30T09:07:39;25.23;;;6.83;;
2023;SDS011;1016;48.770;9.154;2022-10-30T09:10:05;25.00;;;7.50;;
2023;SDS011;1016;48.770;9.154;2022-10-30T09:12:31;25.17;;;7.30;;
2023;SDS011;1016;48.770;9.154;2022-10-30T09:14:56;26.27;;;6.93;;
2023;SDS011;1016;48.770;9.154;2022-10-30T09:17:22;26.27;;;7.30;;
2023;SDS011;1016;48.770;9.154;2022-10-30T09:19:48;24.43;;;6.77;;
2023;SDS011;1016;48.770;9.154;2022-10-30T09:22:13;25.57;;;6.03;;
2023;SDS011;1016;48.770;9.154;2022-10-30T09:24:39;25.60;;;6.10;;
2023;SDS011;1016;48.770;9.154;2022-10-30T09:27:04;23.80;;;6.80;;
2023;SDS011;1016;48.770;9.154;2022-10-30T09:29:30;24.73;;;6.83;;
2023;SDS011;1016;48.770;9.154;2022-10-30T09:31:57;25.80;;;6.80;;
2023;SDS011;1016;48.770;9.154;2022-10-30T09:34:23;23.90;;;6.50;;
2023;SDS011;1016;48.770;9.154;2022-10-30T09:36:48;23.60;;;5.93;;
2023;SDS011;1016;48.770;9.154;2022-10-30T09:39:14;26.10;;;6.43;;
2023;SDS011;1016;48.770;9.154;2022-10-30T09:47:19;25.37;;;7.20;;
2023;SDS011;1016;48.770;9.154;2022-10-30T09:55:49;26.07;;;6.93;;
2023;SDS011;1016;48.770;9.154;2022-10-30T09:58:24;30.03;;;6.70;;
2023;SDS011;1016;48.770;9.154;2022-10-30T10:06:26;26.03;;;6.43;;
2023;SDS011;1016;48.770;9.154;2022-10-30T10:08:58;22.70;;;6.70;;
2023;SDS011;1016;48.770;9.154;2022-10-30T10:11:34;27.00;;;5.77;;
2023;SDS011;1016;48.770;9.154;2022-10-30T10:16:38;26.57;;;5.90;;
2023;SDS011;1016;48.770;9.154;2022-10-30T10:19:19;21.50;;;6.13;;
2023;SDS011;1016;48.770;9.154;2022-10-30T10:21:56;22.47;;;5.80;;
2023;SDS011;1016;48.770;9.154;2022-10-30T10:24:33;23.73;;;6.30;;
2023;SDS011;1016;48.770;9.154;2022-10-30T10:29:45;25.10;;;7.13;;
2023;SDS011;1016;48.770;9.154;2022-10-30T10:32:39;27.70;;;6.70;;
2023;SDS011;1016;48.770;9.154;2022-10-30T10:41:05;25.67;;;6.53;;
2023;SDS011;1016;48.770;9.154;2022-10-30T10:46:29;24.07;;;5.90;;
2023;SDS011;1016;48.770;9.154;2022-10-30T10:49:12;29.80;;;6.70;;
2023;SDS011;1016;48.770;9.154;2022-10-30T10:51:50;27.43;;;7.10;;
2023;SDS011;1016;48.770;9.154;2022-10-30T10:54:24;27.20;;;6.80;;
2023;SDS011;1016;48.770;9.154;2022-10-30T10:56:57;24.70;;;8.47;;
2023;SDS011;1016;48.770;9.154;2022-10-30T11:07:15;23.20;;;5.93;;
2023;SDS011;1016;48.770;9.154;2022-10-30T11:09:46;22.90;;;5.70;;
2023;SDS011;1016;48.770;9.154;2022-10-30T11:12:17;24.63;;;6.73;;
2023;SDS011;1016;48.770;9.154;2022-10-30T11:14:46;24.93;;;5.80;;
2023;SDS011;1016;48.770;9.154;2022-10-30T11:19:50;23.87;;;6.07;;
2023;SDS011;1016;48.770;9.154;2022-10-30T11:22:32;26.43;;;6.60;;
2023;SDS011;1016;48.770;9.154;2022-10-30T11:27:46;23.17;;;5.73;;
2023;SDS011;1016;48.770;9.154;2022-10-30T11:30:21;21.90;;;6.20;;
2023;SDS011;1016;48.770;9.154;2022-10-30T11:32:48;22.90;;;6.03;;
2023;SDS011;1016;48.770;9.154;2022-10-30T11:35:15;21.03;;;5.93;;
2023;SDS011;1016;48.770;9.154;2022-10-30T11:37:43;27.53;;;5.77;;
2023;SDS011;1016;48.770;9.154;2022-10-30T11:42:35;23.60;;;6.43;;
2023;SDS011;1016;48.770;9.154;2022-10-30T11:45:14;21.20;;;5.63;;
2023;SDS011;1016;48.770;9.154;2022-10-30T11:47:41;23.83;;;6.00;;
2023;SDS011;1016;48.770;9.154;2022-10-30T11:50:15;27.90;;;7.00;;
2023;SDS011;1016;48.770;9.154;2022-10-30T11:52:54;24.33;;;6.23;;
2023;SDS011;1016;48.770;9.154;2022-10-30T11:55:26;27.83;;;6.90;;
2023;SDS011;1016;48.770;9.154;2022-10-30T11:57:57;26.80;;;6.47;;
2023;SDS011;1016;48.770;9.154;2022-10-30T12:00:30;24.43;;;6.10;;
2023;SDS011;1016;48.770;9.154;2022-10-30T12:02:58;23.20;;;6.20;;
2023;SDS011;1016;48.770;9.154;2022-10-30T12:10:33;24.60;;;6.03;;
2023;SDS011;1016;48.770;9.154;2022-10-30T12:13:06;27.00;;;6.13;;
2023;SDS011;1016;48.770;9.154;2022-10-30T12:15:40;22.57;;;5.67;;
2023;SDS011;1016;48.770;9.154;2022-10-30T12:18:07;23.67;;;6.50;;
2023;SDS011;1016;48.770;9.154;2022-10-30T12:20:48;26.00;;;7.17;;
2023;SDS011;1016;48.770;9.154;2022-10-30T12:23:20;28.83;;;7.83;;
2023;SDS011;1016;48.770;9.154;2022-10-30T12:25:51;24.23;;;6.77;;
2023;SDS011;1016;48.770;9.154;2022-10-30T12:28:19;27.50;;;6.63;;
2023;SDS011;1016;48.770;9.154;2022-10-30T12:30:49;30.40;;;6.30;;
2023;SDS011;1016;48.770;9.154;2022-10-30T12:34:04;23.10;;;6.10;;
2023;SDS011;1016;48.770;9.154;2022-10-30T12:36:28;23.53;;;6.37;;
2023;SDS011;1016;48.770;9.154;2022-10-30T12:39:11;26.20;;;6.57;;
2023;SDS011;1016;48.770;9.154;2022-10-30T12:41:59;25.60;;;7.63;;
2023;SDS011;1016;48.770;9.154;2022-10-30T12:44:27;30.57;;;7.30;;
2023;SDS011;1016;48.770;9.154;2022-10-30T12:49:51;22.20;;;6.37;;
2023;SDS011;1016;48.770;9.154;2022-10-30T12:52:30;22.97;;;6.53;;
2023;SDS011;1016;48.770;9.154;2022-10-30T12:55:40;27.00;;;6.60;;
2023;SDS011;1016;48.770;9.154;2022-10-30T12:58:36;25.13;;;6.90;;
2023;SDS011;1016;48.770;9.154;2022-10-30T13:01:15;27.47;;;7.30;;
2023;SDS011;1016;48.770;9.154;2022-10-30T13:04:14;24.97;;;6.67;;
2023;SDS011;1016;48.770;9.154;2022-10-30T13:06:52;29.17;;;8.47;;
2023;SDS011;1016;48.770;9.154;2022-10-30T13:10:24;25.80;;;7.17;;
2023;SDS011;1016;48.770;9.154;2022-10-30T13:12:43;23.27;;;6.30;;
2023;SDS011;1016;48.770;9.154;2022-10-30T13:15:17;28.93;;;7.30;;
2023;SDS011;1016;48.770;9.154;2022-10-30T13:17:50;23.67;;;6.77;;
2023;SDS011;1016;48.770;9.154;2022-10-30T13:20:17;23.50;;;6.43;;
2023;SDS011;1016;48.770;9.154;2022-10-30T13:22:50;23.80;;;6.27;;
2023;SDS011;1016;48.770;9.154;2022-10-30T13:30:35;23.27;;;6.73;;
2023;SDS011;1016;48.770;9.154;2022-10-30T13:33:10;26.30;;;6.10;;
2023;SDS011;1016;48.770;9.154;2022-10-30T13:35:46;26.43;;;6.57;;
2023;SDS011;1016;48.770;9.154;2022-10-30T13:38:54;28.17;;;6.30;;
2023;SDS011;1016;48.770;9.154;2022-10-30T13:47:13;24.98;;;7.80;;
2023;SDS011;1016;48.770;9.154;2022-10-30T13:50:00;22.37;;;6.60;;
2023;SDS011;1016;48.770;9.154;2022-10-30T13:52:42;23.40;;;6.70;;
2023;SDS011;1016;48.770;9.154;2022-10-30T13:55:21;25.90;;;7.20;;
2023;SDS011;1016;48.770;9.154;2022-10-30T13:57:59;22.73;;;6.60;;
2023;SDS011;1016;48.770;9.154;2022-10-30T14:00:43;25.27;;;6.72;;
2023;SDS011;1016;48.770;9.154;2022-10-30T14:03:27;23.50;;;7.00;;
2023;SDS011;1016;48.770;9.154;2022-10-30T14:11:17;26.77;;;8.07;;
2023;SDS011;1016;48.770;9.154;2022-10-30T14:13:44;24.10;;;7.40;;
2023;SDS011;1016;48.770;9.154;2022-10-30T14:16:43;23.70;;;7.80;;
2023;SDS011;1016;48.770;9.154;2022-10-30T14:19:10;24.20;;;7.60;;
2023;SDS011;1016;48.770;9.154;2022-10-30T14:24:31;27.10;;;8.20;;
2023;SDS011;1016;48.770;9.154;2022-10-30T14:32:01;24.67;;;8.50;;
2023;SDS011;1016;48.770;9.154;2022-10-30T14:37:16;26.20;;;7.73;;
2023;SDS011;1016;48.770;9.154;2022-10-30T14:40:29;27.20;;;9.37;;
2023;SDS011;1016;48.770;9.154;2022-10-30T14:43:05;25.00;;;8.67;;
2023;SDS011;1016;48.770;9.154;2022-10-30T14:45:38;27.77;;;8.27;;
2023;SDS011;1016;48.770;9.154;2022-10-30T14:48:26;25.20;;;8.23;;
2023;SDS011;1016;48.770;9.154;2022-10-30T14:51:18;30.33;;;7.30;;
2023;SDS011;1016;48.770;9.154;2022-10-30T14:56:46;25.37;;;7.47;;
2023;SDS011;1016;48.770;9.154;2022-10-30T15:07:28;23.20;;;7.53;;
2023;SDS011;1016;48.770;9.154;2022-10-30T15:13:16;23.17;;;7.43;;
2023;SDS011;1016;48.770;9.154;2022-10-30T15:15:59;22.97;;;8.43;;
2023;SDS011;1016;48.770;9.154;2022-10-30T15:18:30;26.07;;;7.23;;
2023;SDS011;1016;48.770;9.154;2022-10-30T15:20:58;25.30;;;8.00;;
2023;SDS011;1016;48.770;9.154;2022-10-30T15:23:28;23.93;;;7.97;;
2023;SDS011;1016;48.770;9.154;2022-10-30T15:25:57;25.30;;;8.07;;
2023;SDS011;1016;48.770;9.154;2022-10-30T15:28:28;25.40;;;7.77;;
2023;SDS011;1016;48.770;9.154;2022-10-30T15:30:57;26.10;;;7.70;;
2023;SDS011;1016;48.770;9.154;2022-10-30T15:33:24;25.23;;;7.37;;
2023;SDS011;1016;48.770;9.154;2022-10-30T15:35:50;22.37;;;7.53;;
2023;SDS011;1016;48.770;9.154;2022-10-30T15:38:15;25.00;;;7.23;;
2023;SDS011;1016;48.770;9.154;2022-10-30T15:40:40;24.00;;;7.50;;
2023;SDS011;1016;48.770;9.154;2022-10-30T15:43:09;23.23;;;7.60;;
2023;SDS011;1016;48.770;9.154;2022-10-30T15:45:38;23.70;;;7.90;;
2023;SDS011;1016;48.770;9.154;2022-10-30T15:48:28;24.00;;;7.70;;
2023;SDS011;1016;48.770;9.154;2022-10-30T15:51:07;22.20;;;7.80;;
2023;SDS011;1016;48.770;9.154;2022-10-30T15:53:48;24.30;;;8.10;;
2023;SDS011;1016;48.770;9.154;2022-10-30T15:59:02;28.27;;;8.17;;
2023;SDS011;1016;48.770;9.154;2022-10-30T16:01:33;25.43;;;7.90;;
2023;SDS011;1016;48.770;9.154;2022-10-30T16:04:03;23.17;;;7.70;;
2023;SDS011;1016;48.770;9.154;2022-10-30T16:06:37;24.40;;;7.33;;
2023;SDS011;1016;48.770;9.154;2022-10-30T16:09:02;24.03;;;7.50;;
2023;SDS011;1016;48.770;9.154;2022-10-30T16:11:28;25.90;;;8.57;;
2023;SDS011;1016;48.770;9.154;2022-10-30T16:13:54;23.17;;;7.17;;
2023;SDS011;1016;48.770;9.154;2022-10-30T16:16:26;24.23;;;7.13;;
2023;SDS011;1016;48.770;9.154;2022-10-30T16:18:57;24.73;;;7.27;;
2023;SDS011;1016;48.770;9.154;2022-10-30T16:21:26;25.50;;;7.93;;
2023;SDS011;1016;48.770;9.154;2022-10-30T16:23:56;24.03;;;7.47;;
2023;SDS011;1016;48.770;9.154;2022-10-30T16:26:32;21.60;;;6.20;;
2023;SDS011;1016;48.770;9.154;2022-10-30T16:29:01;24.20;;;7.40;;
2023;SDS011;1016;48.770;9.154;2022-10-30T16:31:32;23.30;;;7.13;;
2023;SDS011;1016;48.770;9.154;2022-10-30T16:34:00;24.37;;;7.57;;
2023;SDS011;1016;48.770;9.154;2022-10-30T16:36:27;26.57;;;7.30;;
2023;SDS011;1016;48.770;9.154;2022-10-30T16:38:53;24.87;;;7.60;;
2023;SDS011;1016;48.770;9.154;2022-10-30T16:41:20;22.03;;;6.53;;
2023;SDS011;1016;48.770;9.154;2022-10-30T16:46:37;23.97;;;6.60;;
2023;SDS011;1016;48.770;9.154;2022-10-30T16:49:11;26.43;;;7.20;;
2023;SDS011;1016;48.770;9.154;2022-10-30T16:51:40;25.67;;;6.53;;
2023;SDS011;1016;48.770;9.154;2022-10-30T16:54:15;22.93;;;6.77;;
2023;SDS011;1016;48.770;9.154;2022-10-30T16:56:47;23.60;;;6.87;;
2023;SDS011;1016;48.770;9.154;2022-10-30T16:59:27;32.67;;;6.47;;
2023;SDS011;1016;48.770;9.154;2022-10-30T17:01:57;20.93;;;5.80;;
2023;SDS011;1016;48.770;9.154;2022-10-30T17:04:29;23.07;;;6.20;;
2023;SDS011;1016;48.770;9.154;2022-10-30T17:07:05;23.67;;;6.53;;
2023;SDS011;1016;48.770;9.154;2022-10-30T17:09:38;22.50;;;6.40;;
2023;SDS011;1016;48.770;9.154;2022-10-30T17:15:14;20.60;;;5.63;;
2023;SDS011;1016;48.770;9.154;2022-10-30T17:17:34;23.87;;;6.27;;
2023;SDS011;1016;48.770;9.154;2022-10-30T17:20:12;24.33;;;6.53;;
2023;SDS011;1016;48.770;9.154;2022-10-30T17:22:44;23.83;;;6.60;;